sensor_id;sensor_type;location;lat;lon;timestamp;P1;durP1;ratioP1;P2;durP2;ratioP2
3663;SDS011;1848;51.042;7.066;2022-08-21T00:01:40;13.87;;;11.10;;
3663;SDS011;1848;51.042;7.066;2022-08-21T00:04:07;11.43;;;10.10;;
3663;SDS011;1848;51.042;7.066;2022-08-21T00:06:35;14.13;;;10.67;;
3663;SDS011;1848;51.042;7.066;2022-08-21T00:09:04;11.93;;;10.30;;
3663;SDS011;1848;51.042;7.066;2022-08-21T00:11:32;15.47;;;11.13;;
3663;SDS011;1848;51.042;7.066;2022-08-21T00:14:01;12.77;;;10.93;;
3663;SDS011;1848;51.042;7.066;2022-08-21T00:16:29;12.13;;;10.50;;
3663;SDS011;1848;51.042;7.066;2022-08-21T00:18:55;12.30;;;10.87;;
3663;SDS011;1848;51.042;7.066;2022-08-21T00:21:21;13.10;;;11.33;;
3663;SDS011;1848;51.042;7.066;2022-08-21T00:23:48;12.40;;;11.10;;
3663;SDS011;1848;51.042;7.066;2022-08-21T00:26:14;13.97;;;10.47;;
3663;SDS011;1848;51.042;7.066;2022-08-21T00:28:41;12.43;;;11.20;;
3663;SDS011;1848;51.042;7.066;2022-08-21T00:31:07;11.07;;;9.90;;
3663;SDS011;1848;51.042;7.066;2022-08-21T00:33:34;11.60;;;10.40;;
3663;SDS011;1848;51.042;7.066;2022-08-21T00:36:00;12.83;;;11.20;;
3663;SDS011;1848;51.042;7.066;2022-08-21T00:38:27;11.40;;;9.93;;
3663;SDS011;1848;51.042;7.066;2022-08-21T00:40:55;12.87;;;10.60;;
3663;SDS011;1848;51.042;7.066;2022-08-21T00:43:45;13.00;;;10.87;;
3663;SDS011;1848;51.042;7.066;2022-08-21T00:46:11;11.20;;;10.00;;
3663;SDS011;1848;51.042;7.066;2022-08-21T00:48:37;11.77;;;9.70;;
3663;SDS011;1848;51.042;7.066;2022-08-21T00:51:05;11.73;;;10.43;;
3663;SDS011;1848;51.042;7.066;2022-08-21T00:53:35;12.17;;;10.77;;
3663;SDS011;1848;51.042;7.066;2022-08-21T00:56:05;14.10;;;10.30;;
3663;SDS011;1848;51.042;7.066;2022-08-21T00:58:36;12.90;;;11.00;;
3663;SDS011;1848;51.042;7.066;2022-08-21T01:01:07;13.80;;;11.67;;
3663;SDS011;1848;51.042;7.066;2022-08-21T01:03:35;12.10;;;10.90;;
3663;SDS011;1848;51.042;7.066;2022-08-21T01:06:03;13.90;;;11.23;;
3663;SDS011;1848;51.042;7.066;2022-08-21T01:08:30;12.90;;;11.30;;
3663;SDS011;1848;51.042;7.066;2022-08-21T01:10:58;15.23;;;10.67;;
3663;SDS011;1848;51.042;7.066;2022-08-21T01:13:29;11.53;;;10.43;;
3663;SDS011;1848;51.042;7.066;2022-08-21T01:15:58;13.30;;;11.13;;
3663;SDS011;1848;51.042;7.066;2022-08-21T01:18:27;14.73;;;11.10;;
3663;SDS011;1848;51.042;7.066;2022-08-21T01:23:30;16.27;;;10.97;;
3663;SDS011;1848;51.042;7.066;2022-08-21T01:25:57;11.63;;;10.50;;
3663;SDS011;1848;51.042;7.066;2022-08-21T01:28:23;11.50;;;10.30;;
3663;SDS011;1848;51.042;7.066;2022-08-21T01:30:50;11.83;;;9.57;;
3663;SDS011;1848;51.042;7.066;2022-08-21T01:33:19;11.90;;;10.53;;
3663;SDS011;1848;51.042;7.066;2022-08-21T01:35:50;13.00;;;9.83;;
3663;SDS011;1848;51.042;7.066;2022-08-21T01:38:17;14.87;;;9.80;;
3663;SDS011;1848;51.042;7.066;2022-08-21T01:40:43;11.30;;;10.10;;
3663;SDS011;1848;51.042;7.066;2022-08-21T01:43:10;12.20;;;10.07;;
3663;SDS011;1848;51.042;7.066;2022-08-21T01:45:36;11.83;;;10.47;;
3663;SDS011;1848;51.042;7.066;2022-08-21T01:48:03;11.67;;;9.87;;
3663;SDS011;1848;51.042;7.066;2022-08-21T01:50:29;11.27;;;10.00;;
3663;SDS011;1848;51.042;7.066;2022-08-21T01:52:56;10.70;;;9.70;;
3663;SDS011;1848;51.042;7.066;2022-08-21T01:55:23;11.90;;;10.70;;
3663;SDS011;1848;51.042;7.066;2022-08-21T01:57:49;14.40;;;10.60;;
3663;SDS011;1848;51.042;7.066;2022-08-21T02:00:17;16.83;;;10.20;;
3663;SDS011;1848;51.042;7.066;2022-08-21T02:02:46;13.00;;;11.67;;
3663;SDS011;1848;51.042;7.066;2022-08-21T02:05:12;16.47;;;10.87;;
3663;SDS011;1848;51.042;7.066;2022-08-21T02:07:40;11.80;;;10.07;;
3663;SDS011;1848;51.042;7.066;2022-08-21T02:10:08;12.03;;;10.83;;
3663;SDS011;1848;51.042;7.066;2022-08-21T02:12:37;15.47;;;11.40;;
3663;SDS011;1848;51.042;7.066;2022-08-21T02:15:04;12.10;;;10.90;;
3663;SDS011;1848;51.042;7.066;2022-08-21T02:17:39;12.47;;;11.10;;
3663;SDS011;1848;51.042;7.066;2022-08-21T02:20:08;12.37;;;11.07;;
3663;SDS011;1848;51.042;7.066;2022-08-21T02:22:35;17.07;;;10.80;;
3663;SDS011;1848;51.042;7.066;2022-08-21T02:25:02;15.33;;;11.07;;
3663;SDS011;1848;51.042;7.066;2022-08-21T02:27:29;13.77;;;11.30;;
3663;SDS011;1848;51.042;7.066;2022-08-21T02:29:59;15.07;;;10.80;;
3663;SDS011;1848;51.042;7.066;2022-08-21T02:32:25;12.83;;;11.07;;
3663;SDS011;1848;51.042;7.066;2022-08-21T02:34:52;12.87;;;11.47;;
3663;SDS011;1848;51.042;7.066;2022-08-21T02:37:19;13.00;;;10.57;;
3663;SDS011;1848;51.042;7.066;2022-08-21T02:39:46;19.37;;;11.43;;
3663;SDS011;1848;51.042;7.066;2022-08-21T02:42:12;14.07;;;11.77;;
3663;SDS011;1848;51.042;7.066;2022-08-21T02:44:39;16.83;;;11.37;;
3663;SDS011;1848;51.042;7.066;2022-08-21T02:47:05;18.33;;;11.43;;
3663;SDS011;1848;51.042;7.066;2022-08-21T02:49:31;13.53;;;11.60;;
3663;SDS011;1848;51.042;7.066;2022-08-21T02:51:58;12.37;;;11.10;;
3663;SDS011;1848;51.042;7.066;2022-08-21T02:54:25;14.57;;;11.40;;
3663;SDS011;1848;51.042;7.066;2022-08-21T02:56:51;13.53;;;12.20;;
3663;SDS011;1848;51.042;7.066;2022-08-21T02:59:18;14.30;;;11.80;;
3663;SDS011;1848;51.042;7.066;2022-08-21T03:01:44;15.77;;;12.63;;
3663;SDS011;1848;51.042;7.066;2022-08-21T03:04:10;13.00;;;11.10;;
3663;SDS011;1848;51.042;7.066;2022-08-21T03:06:37;15.20;;;12.20;;
3663;SDS011;1848;51.042;7.066;2022-08-21T03:09:03;16.90;;;12.13;;
3663;SDS011;1848;51.042;7.066;2022-08-21T03:11:30;16.40;;;11.57;;
3663;SDS011;1848;51.042;7.066;2022-08-21T03:13:56;16.47;;;12.10;;
3663;SDS011;1848;51.042;7.066;2022-08-21T03:16:23;14.90;;;13.07;;
3663;SDS011;1848;51.042;7.066;2022-08-21T03:18:49;20.30;;;11.90;;
3663;SDS011;1848;51.042;7.066;2022-08-21T03:21:15;13.53;;;11.67;;
3663;SDS011;1848;51.042;7.066;2022-08-21T03:23:43;14.87;;;12.83;;
3663;SDS011;1848;51.042;7.066;2022-08-21T03:26:10;15.00;;;13.20;;
3663;SDS011;1848;51.042;7.066;2022-08-21T03:28:37;16.00;;;13.60;;
3663;SDS011;1848;51.042;7.066;2022-08-21T03:31:03;14.03;;;12.40;;
3663;SDS011;1848;51.042;7.066;2022-08-21T03:33:31;16.57;;;13.13;;
3663;SDS011;1848;51.042;7.066;2022-08-21T03:36:03;15.60;;;12.20;;
3663;SDS011;1848;51.042;7.066;2022-08-21T03:38:32;15.50;;;11.87;;
3663;SDS011;1848;51.042;7.066;2022-08-21T03:40:59;19.50;;;12.47;;
3663;SDS011;1848;51.042;7.066;2022-08-21T03:43:27;16.80;;;12.27;;
3663;SDS011;1848;51.042;7.066;2022-08-21T03:45:57;15.17;;;12.43;;
3663;SDS011;1848;51.042;7.066;2022-08-21T03:48:24;22.83;;;14.30;;
3663;SDS011;1848;51.042;7.066;2022-08-21T03:50:51;16.80;;;12.87;;
3663;SDS011;1848;51.042;7.066;2022-08-21T03:53:18;14.20;;;12.77;;
3663;SDS011;1848;51.042;7.066;2022-08-21T03:55:46;15.63;;;12.17;;
3663;SDS011;1848;51.042;7.066;2022-08-21T03:58:15;17.03;;;12.50;;
3663;SDS011;1848;51.042;7.066;2022-08-21T04:00:46;16.60;;;12.30;;
3663;SDS011;1848;51.042;7.066;2022-08-21T04:03:15;16.67;;;13.03;;
3663;SDS011;1848;51.042;7.066;2022-08-21T04:05:42;19.07;;;12.70;;
3663;SDS011;1848;51.042;7.066;2022-08-21T04:08:08;14.77;;;11.00;;
3663;SDS011;1848;51.042;7.066;2022-08-21T04:10:35;19.87;;;13.23;;
3663;SDS011;1848;51.042;7.066;2022-08-21T04:13:04;18.03;;;12.90;;
3663;SDS011;1848;51.042;7.066;2022-08-21T04:15:31;14.80;;;12.83;;
3663;SDS011;1848;51.042;7.066;2022-08-21T04:17:58;14.37;;;12.20;;
3663;SDS011;1848;51.042;7.066;2022-08-21T04:20:25;15.47;;;13.07;;
3663;SDS011;1848;51.042;7.066;2022-08-21T04:22:52;16.70;;;12.07;;
3663;SDS011;1848;51.042;7.066;2022-08-21T04:25:20;19.87;;;13.03;;
3663;SDS011;1848;51.042;7.066;2022-08-21T04:27:48;17.50;;;12.77;;
3663;SDS011;1848;51.042;7.066;2022-08-21T04:30:15;17.13;;;13.53;;
3663;SDS011;1848;51.042;7.066;2022-08-21T04:32:45;14.50;;;13.00;;
3663;SDS011;1848;51.042;7.066;2022-08-21T04:35:15;12.80;;;11.50;;
3663;SDS011;1848;51.042;7.066;2022-08-21T04:37:44;18.27;;;12.53;;
3663;SDS011;1848;51.042;7.066;2022-08-21T04:40:12;16.83;;;12.97;;
3663;SDS011;1848;51.042;7.066;2022-08-21T04:45:18;14.73;;;12.53;;
3663;SDS011;1848;51.042;7.066;2022-08-21T04:47:48;14.77;;;12.00;;
3663;SDS011;1848;51.042;7.066;2022-08-21T04:50:18;17.50;;;12.47;;
3663;SDS011;1848;51.042;7.066;2022-08-21T04:52:47;15.87;;;11.40;;
3663;SDS011;1848;51.042;7.066;2022-08-21T04:55:15;14.97;;;12.70;;
3663;SDS011;1848;51.042;7.066;2022-08-21T04:57:43;13.77;;;12.33;;
3663;SDS011;1848;51.042;7.066;2022-08-21T05:00:14;17.13;;;12.93;;
3663;SDS011;1848;51.042;7.066;2022-08-21T05:02:44;13.80;;;12.17;;
3663;SDS011;1848;51.042;7.066;2022-08-21T05:05:13;20.73;;;12.23;;
3663;SDS011;1848;51.042;7.066;2022-08-21T05:07:41;18.07;;;12.73;;
3663;SDS011;1848;51.042;7.066;2022-08-21T05:10:09;17.13;;;13.20;;
3663;SDS011;1848;51.042;7.066;2022-08-21T05:12:39;13.47;;;11.53;;
3663;SDS011;1848;51.042;7.066;2022-08-21T05:15:08;14.40;;;12.07;;
3663;SDS011;1848;51.042;7.066;2022-08-21T05:17:38;12.87;;;11.40;;
3663;SDS011;1848;51.042;7.066;2022-08-21T05:20:06;15.80;;;11.67;;
3663;SDS011;1848;51.042;7.066;2022-08-21T05:22:34;13.60;;;12.07;;
3663;SDS011;1848;51.042;7.066;2022-08-21T05:25:00;12.53;;;11.30;;
3663;SDS011;1848;51.042;7.066;2022-08-21T05:27:27;16.20;;;12.33;;
3663;SDS011;1848;51.042;7.066;2022-08-21T05:29:56;12.90;;;11.70;;
3663;SDS011;1848;51.042;7.066;2022-08-21T05:32:23;13.83;;;11.10;;
3663;SDS011;1848;51.042;7.066;2022-08-21T05:34:50;16.27;;;12.33;;
3663;SDS011;1848;51.042;7.066;2022-08-21T05:37:16;17.37;;;11.40;;
3663;SDS011;1848;51.042;7.066;2022-08-21T05:39:43;15.83;;;12.07;;
3663;SDS011;1848;51.042;7.066;2022-08-21T05:42:29;13.70;;;12.23;;
3663;SDS011;1848;51.042;7.066;2022-08-21T05:44:56;16.40;;;11.83;;
3663;SDS011;1848;51.042;7.066;2022-08-21T05:47:24;13.23;;;11.80;;
3663;SDS011;1848;51.042;7.066;2022-08-21T05:49:50;15.70;;;12.67;;
3663;SDS011;1848;51.042;7.066;2022-08-21T05:52:20;13.73;;;12.17;;
3663;SDS011;1848;51.042;7.066;2022-08-21T05:54:47;17.80;;;12.07;;
3663;SDS011;1848;51.042;7.066;2022-08-21T05:57:14;14.87;;;11.73;;
3663;SDS011;1848;51.042;7.066;2022-08-21T05:59:40;15.67;;;12.13;;
3663;SDS011;1848;51.042;7.066;2022-08-21T06:02:07;14.97;;;12.10;;
3663;SDS011;1848;51.042;7.066;2022-08-21T06:04:37;17.17;;;13.20;;
3663;SDS011;1848;51.042;7.066;2022-08-21T06:07:04;18.20;;;13.47;;
3663;SDS011;1848;51.042;7.066;2022-08-21T06:09:31;17.00;;;13.57;;
3663;SDS011;1848;51.042;7.066;2022-08-21T06:11:58;21.23;;;14.37;;
3663;SDS011;1848;51.042;7.066;2022-08-21T06:14:29;20.20;;;13.33;;
3663;SDS011;1848;51.042;7.066;2022-08-21T06:17:01;18.07;;;14.13;;
3663;SDS011;1848;51.042;7.066;2022-08-21T06:19:29;18.03;;;13.50;;
3663;SDS011;1848;51.042;7.066;2022-08-21T06:21:55;15.10;;;12.33;;
3663;SDS011;1848;51.042;7.066;2022-08-21T06:24:22;18.13;;;12.50;;
3663;SDS011;1848;51.042;7.066;2022-08-21T06:26:48;14.63;;;13.20;;
3663;SDS011;1848;51.042;7.066;2022-08-21T06:29:15;18.57;;;13.10;;
3663;SDS011;1848;51.042;7.066;2022-08-21T06:31:46;15.33;;;13.00;;
3663;SDS011;1848;51.042;7.066;2022-08-21T06:34:15;19.80;;;13.00;;
3663;SDS011;1848;51.042;7.066;2022-08-21T06:36:42;18.37;;;13.00;;
3663;SDS011;1848;51.042;7.066;2022-08-21T06:39:08;21.57;;;14.37;;
3663;SDS011;1848;51.042;7.066;2022-08-21T06:41:49;19.33;;;14.07;;
3663;SDS011;1848;51.042;7.066;2022-08-21T06:44:16;19.40;;;13.50;;
3663;SDS011;1848;51.042;7.066;2022-08-21T06:46:43;17.00;;;13.70;;
3663;SDS011;1848;51.042;7.066;2022-08-21T06:49:13;15.63;;;12.70;;
3663;SDS011;1848;51.042;7.066;2022-08-21T06:51:46;16.37;;;12.17;;
3663;SDS011;1848;51.042;7.066;2022-08-21T06:54:13;17.43;;;13.70;;
3663;SDS011;1848;51.042;7.066;2022-08-21T06:56:39;15.17;;;13.60;;
3663;SDS011;1848;51.042;7.066;2022-08-21T06:59:06;16.60;;;12.73;;
3663;SDS011;1848;51.042;7.066;2022-08-21T07:01:32;18.20;;;13.17;;
3663;SDS011;1848;51.042;7.066;2022-08-21T07:03:58;18.63;;;12.00;;
3663;SDS011;1848;51.042;7.066;2022-08-21T07:06:25;15.80;;;12.73;;
3663;SDS011;1848;51.042;7.066;2022-08-21T07:08:51;13.93;;;12.50;;
3663;SDS011;1848;51.042;7.066;2022-08-21T07:11:20;18.50;;;12.90;;
3663;SDS011;1848;51.042;7.066;2022-08-21T07:13:48;22.90;;;12.77;;
3663;SDS011;1848;51.042;7.066;2022-08-21T07:16:17;17.73;;;12.07;;
3663;SDS011;1848;51.042;7.066;2022-08-21T07:18:43;18.00;;;11.93;;
3663;SDS011;1848;51.042;7.066;2022-08-21T07:21:10;14.13;;;10.93;;
3663;SDS011;1848;51.042;7.066;2022-08-21T07:23:37;15.93;;;11.90;;
3663;SDS011;1848;51.042;7.066;2022-08-21T07:26:07;16.00;;;12.47;;
3663;SDS011;1848;51.042;7.066;2022-08-21T07:28:34;14.23;;;12.10;;
3663;SDS011;1848;51.042;7.066;2022-08-21T07:31:01;18.07;;;13.13;;
3663;SDS011;1848;51.042;7.066;2022-08-21T07:33:31;17.50;;;11.67;;
3663;SDS011;1848;51.042;7.066;2022-08-21T07:35:58;17.43;;;11.40;;
3663;SDS011;1848;51.042;7.066;2022-08-21T07:38:25;21.57;;;12.23;;
3663;SDS011;1848;51.042;7.066;2022-08-21T07:40:52;14.63;;;11.40;;
3663;SDS011;1848;51.042;7.066;2022-08-21T07:43:21;16.77;;;12.60;;
3663;SDS011;1848;51.042;7.066;2022-08-21T07:45:48;15.70;;;12.23;;
3663;SDS011;1848;51.042;7.066;2022-08-21T07:48:17;17.00;;;11.00;;
3663;SDS011;1848;51.042;7.066;2022-08-21T07:50:44;18.33;;;12.37;;
3663;SDS011;1848;51.042;7.066;2022-08-21T07:53:10;14.30;;;11.17;;
3663;SDS011;1848;51.042;7.066;2022-08-21T07:55:37;17.50;;;10.23;;
3663;SDS011;1848;51.042;7.066;2022-08-21T07:58:03;13.30;;;10.50;;
3663;SDS011;1848;51.042;7.066;2022-08-21T08:00:29;20.07;;;11.03;;
3663;SDS011;1848;51.042;7.066;2022-08-21T08:02:57;14.90;;;10.40;;
3663;SDS011;1848;51.042;7.066;2022-08-21T08:05:25;16.90;;;9.90;;
3663;SDS011;1848;51.042;7.066;2022-08-21T08:07:54;11.13;;;9.70;;
3663;SDS011;1848;51.042;7.066;2022-08-21T08:10:21;12.87;;;9.60;;
3663;SDS011;1848;51.042;7.066;2022-08-21T08:12:51;15.67;;;10.10;;
3663;SDS011;1848;51.042;7.066;2022-08-21T08:15:21;14.90;;;8.87;;
3663;SDS011;1848;51.042;7.066;2022-08-21T08:17:50;13.80;;;9.40;;
3663;SDS011;1848;51.042;7.066;2022-08-21T08:20:17;17.83;;;9.37;;
3663;SDS011;1848;51.042;7.066;2022-08-21T08:22:44;17.77;;;9.80;;
3663;SDS011;1848;51.042;7.066;2022-08-21T08:25:15;13.87;;;10.40;;
3663;SDS011;1848;51.042;7.066;2022-08-21T08:27:43;12.87;;;9.40;;
3663;SDS011;1848;51.042;7.066;2022-08-21T08:30:10;16.87;;;10.70;;
3663;SDS011;1848;51.042;7.066;2022-08-21T08:32:39;14.90;;;9.90;;
3663;SDS011;1848;51.042;7.066;2022-08-21T08:35:06;12.53;;;8.80;;
3663;SDS011;1848;51.042;7.066;2022-08-21T08:37:34;11.73;;;8.60;;
3663;SDS011;1848;51.042;7.066;2022-08-21T08:40:14;13.47;;;9.30;;
3663;SDS011;1848;51.042;7.066;2022-08-21T08:42:48;17.13;;;9.33;;
3663;SDS011;1848;51.042;7.066;2022-08-21T08:45:18;15.13;;;7.97;;
3663;SDS011;1848;51.042;7.066;2022-08-21T08:47:53;12.30;;;8.50;;
3663;SDS011;1848;51.042;7.066;2022-08-21T08:53:17;11.10;;;7.37;;
3663;SDS011;1848;51.042;7.066;2022-08-21T08:55:49;9.13;;;5.47;;
3663;SDS011;1848;51.042;7.066;2022-08-21T08:58:22;11.70;;;6.50;;
3663;SDS011;1848;51.042;7.066;2022-08-21T09:00:53;11.90;;;6.40;;
3663;SDS011;1848;51.042;7.066;2022-08-21T09:03:22;12.23;;;5.87;;
3663;SDS011;1848;51.042;7.066;2022-08-21T09:06:04;11.73;;;6.57;;
3663;SDS011;1848;51.042;7.066;2022-08-21T09:11:13;8.50;;;4.73;;
3663;SDS011;1848;51.042;7.066;2022-08-21T09:16:55;8.53;;;3.70;;
3663;SDS011;1848;51.042;7.066;2022-08-21T09:22:24;11.53;;;4.27;;
3663;SDS011;1848;51.042;7.066;2022-08-21T09:25:51;11.10;;;4.57;;
3663;SDS011;1848;51.042;7.066;2022-08-21T09:27:57;9.53;;;4.60;;
3663;SDS011;1848;51.042;7.066;2022-08-21T09:30:25;7.10;;;3.77;;
3663;SDS011;1848;51.042;7.066;2022-08-21T09:32:54;8.80;;;3.83;;
3663;SDS011;1848;51.042;7.066;2022-08-21T09:35:22;6.07;;;3.60;;
3663;SDS011;1848;51.042;7.066;2022-08-21T09:43:04;7.63;;;3.20;;
3663;SDS011;1848;51.042;7.066;2022-08-21T09:45:40;7.93;;;2.63;;
3663;SDS011;1848;51.042;7.066;2022-08-21T09:48:24;6.83;;;3.33;;
3663;SDS011;1848;51.042;7.066;2022-08-21T09:50:52;4.67;;;3.00;;
3663;SDS011;1848;51.042;7.066;2022-08-21T09:53:21;8.33;;;2.77;;
3663;SDS011;1848;51.042;7.066;2022-08-21T09:55:54;8.93;;;3.43;;
3663;SDS011;1848;51.042;7.066;2022-08-21T09:58:42;10.10;;;3.03;;
3663;SDS011;1848;51.042;7.066;2022-08-21T10:01:22;9.33;;;3.33;;
3663;SDS011;1848;51.042;7.066;2022-08-21T10:04:10;5.87;;;2.87;;
3663;SDS011;1848;51.042;7.066;2022-08-21T10:06:37;7.37;;;2.90;;
3663;SDS011;1848;51.042;7.066;2022-08-21T10:09:15;9.37;;;3.73;;
3663;SDS011;1848;51.042;7.066;2022-08-21T10:11:58;9.47;;;3.00;;
3663;SDS011;1848;51.042;7.066;2022-08-21T10:14:52;6.33;;;3.10;;
3663;SDS011;1848;51.042;7.066;2022-08-21T10:17:37;6.60;;;3.27;;
3663;SDS011;1848;51.042;7.066;2022-08-21T10:20:11;6.90;;;2.83;;
3663;SDS011;1848;51.042;7.066;2022-08-21T10:25:23;5.83;;;2.90;;
3663;SDS011;1848;51.042;7.066;2022-08-21T10:28:01;7.60;;;3.10;;
3663;SDS011;1848;51.042;7.066;2022-08-21T10:30:46;6.00;;;3.10;;
3663;SDS011;1848;51.042;7.066;2022-08-21T10:33:21;12.70;;;3.77;;
3663;SDS011;1848;51.042;7.066;2022-08-21T10:36:13;6.50;;;2.90;;
3663;SDS011;1848;51.042;7.066;2022-08-21T10:38:58;11.00;;;3.57;;
3663;SDS011;1848;51.042;7.066;2022-08-21T10:44:36;7.47;;;3.20;;
3663;SDS011;1848;51.042;7.066;2022-08-21T10:55:17;8.20;;;2.63;;
3663;SDS011;1848;51.042;7.066;2022-08-21T10:57:51;7.17;;;2.87;;
3663;SDS011;1848;51.042;7.066;2022-08-21T11:00:20;8.50;;;3.03;;
3663;SDS011;1848;51.042;7.066;2022-08-21T11:02:51;6.30;;;2.50;;
3663;SDS011;1848;51.042;7.066;2022-08-21T11:05:25;5.97;;;2.67;;
3663;SDS011;1848;51.042;7.066;2022-08-21T11:08:00;6.07;;;2.43;;
3663;SDS011;1848;51.042;7.066;2022-08-21T11:11:01;6.37;;;2.70;;
3663;SDS011;1848;51.042;7.066;2022-08-21T11:13:44;6.77;;;3.10;;
3663;SDS011;1848;51.042;7.066;2022-08-21T11:16:18;6.23;;;2.90;;
3663;SDS011;1848;51.042;7.066;2022-08-21T11:21:45;5.77;;;3.03;;
3663;SDS011;1848;51.042;7.066;2022-08-21T11:27:15;6.87;;;3.10;;
3663;SDS011;1848;51.042;7.066;2022-08-21T11:29:49;6.10;;;3.00;;
3663;SDS011;1848;51.042;7.066;2022-08-21T11:40:31;4.03;;;2.40;;
3663;SDS011;1848;51.042;7.066;2022-08-21T11:45:53;5.27;;;2.40;;
3663;SDS011;1848;51.042;7.066;2022-08-21T11:48:44;4.90;;;2.57;;
3663;SDS011;1848;51.042;7.066;2022-08-21T11:51:18;7.27;;;2.60;;
3663;SDS011;1848;51.042;7.066;2022-08-21T11:54:04;5.97;;;2.63;;
3663;SDS011;1848;51.042;7.066;2022-08-21T11:56:38;6.50;;;2.90;;
3663;SDS011;1848;51.042;7.066;2022-08-21T11:59:20;5.33;;;2.60;;
3663;SDS011;1848;51.042;7.066;2022-08-21T12:01:51;4.00;;;2.67;;
3663;SDS011;1848;51.042;7.066;2022-08-21T12:05:06;5.80;;;2.70;;
3663;SDS011;1848;51.042;7.066;2022-08-21T12:07:13;6.13;;;3.00;;
3663;SDS011;1848;51.042;7.066;2022-08-21T12:09:51;5.03;;;2.70;;
3663;SDS011;1848;51.042;7.066;2022-08-21T12:12:30;7.80;;;3.83;;
3663;SDS011;1848;51.042;7.066;2022-08-21T12:17:36;4.00;;;2.67;;
3663;SDS011;1848;51.042;7.066;2022-08-21T12:22:49;4.77;;;2.60;;
3663;SDS011;1848;51.042;7.066;2022-08-21T12:25:38;5.70;;;2.80;;
3663;SDS011;1848;51.042;7.066;2022-08-21T12:28:11;4.10;;;3.17;;
3663;SDS011;1848;51.042;7.066;2022-08-21T12:30:41;4.23;;;2.70;;
3663;SDS011;1848;51.042;7.066;2022-08-21T12:38:56;5.23;;;2.73;;
3663;SDS011;1848;51.042;7.066;2022-08-21T12:41:28;6.47;;;3.23;;
3663;SDS011;1848;51.042;7.066;2022-08-21T12:44:01;7.13;;;2.87;;
3663;SDS011;1848;51.042;7.066;2022-08-21T12:46:36;4.60;;;2.37;;
3663;SDS011;1848;51.042;7.066;2022-08-21T12:49:14;3.50;;;2.97;;
3663;SDS011;1848;51.042;7.066;2022-08-21T12:54:37;7.20;;;3.30;;
3663;SDS011;1848;51.042;7.066;2022-08-21T12:57:06;4.23;;;2.87;;
3663;SDS011;1848;51.042;7.066;2022-08-21T12:59:39;5.50;;;3.20;;
3663;SDS011;1848;51.042;7.066;2022-08-21T13:02:11;4.23;;;2.90;;
3663;SDS011;1848;51.042;7.066;2022-08-21T13:04:43;5.40;;;3.53;;
3663;SDS011;1848;51.042;7.066;2022-08-21T13:07:11;5.47;;;3.47;;
3663;SDS011;1848;51.042;7.066;2022-08-21T13:09:50;4.47;;;3.10;;
3663;SDS011;1848;51.042;7.066;2022-08-21T13:12:20;4.43;;;3.27;;
3663;SDS011;1848;51.042;7.066;2022-08-21T13:14:54;5.27;;;3.27;;
3663;SDS011;1848;51.042;7.066;2022-08-21T13:17:24;4.63;;;3.40;;
3663;SDS011;1848;51.042;7.066;2022-08-21T13:19:59;4.80;;;3.00;;
3663;SDS011;1848;51.042;7.066;2022-08-21T13:22:39;4.40;;;2.90;;
3663;SDS011;1848;51.042;7.066;2022-08-21T13:25:14;6.90;;;3.40;;
3663;SDS011;1848;51.042;7.066;2022-08-21T13:27:43;5.43;;;3.10;;
3663;SDS011;1848;51.042;7.066;2022-08-21T13:30:17;4.53;;;3.10;;
3663;SDS011;1848;51.042;7.066;2022-08-21T13:32:48;6.03;;;3.40;;
3663;SDS011;1848;51.042;7.066;2022-08-21T13:35:21;5.30;;;3.37;;
3663;SDS011;1848;51.042;7.066;2022-08-21T13:37:51;4.50;;;2.90;;
3663;SDS011;1848;51.042;7.066;2022-08-21T13:40:23;6.07;;;2.60;;
3663;SDS011;1848;51.042;7.066;2022-08-21T13:42:57;5.97;;;3.30;;
3663;SDS011;1848;51.042;7.066;2022-08-21T13:45:30;5.53;;;3.10;;
3663;SDS011;1848;51.042;7.066;2022-08-21T13:47:59;4.00;;;2.90;;
3663;SDS011;1848;51.042;7.066;2022-08-21T13:50:32;5.60;;;2.53;;
3663;SDS011;1848;51.042;7.066;2022-08-21T13:53:02;4.83;;;3.00;;
3663;SDS011;1848;51.042;7.066;2022-08-21T13:55:41;4.80;;;3.10;;
3663;SDS011;1848;51.042;7.066;2022-08-21T13:58:09;4.80;;;3.17;;
3663;SDS011;1848;51.042;7.066;2022-08-21T14:00:45;5.10;;;3.70;;
3663;SDS011;1848;51.042;7.066;2022-08-21T14:03:15;4.47;;;2.70;;
3663;SDS011;1848;51.042;7.066;2022-08-21T14:06:11;6.40;;;3.40;;
3663;SDS011;1848;51.042;7.066;2022-08-21T14:08:41;7.90;;;3.40;;
3663;SDS011;1848;51.042;7.066;2022-08-21T14:11:12;5.57;;;3.50;;
3663;SDS011;1848;51.042;7.066;2022-08-21T14:13:42;4.63;;;2.90;;
3663;SDS011;1848;51.042;7.066;2022-08-21T14:16:19;5.70;;;3.37;;
3663;SDS011;1848;51.042;7.066;2022-08-21T14:19:11;5.80;;;3.37;;
3663;SDS011;1848;51.042;7.066;2022-08-21T14:21:38;5.53;;;3.23;;
3663;SDS011;1848;51.042;7.066;2022-08-21T14:24:26;6.10;;;3.30;;
3663;SDS011;1848;51.042;7.066;2022-08-21T14:27:02;6.00;;;3.80;;
3663;SDS011;1848;51.042;7.066;2022-08-21T14:29:35;5.57;;;3.67;;
3663;SDS011;1848;51.042;7.066;2022-08-21T14:32:14;8.13;;;3.67;;
3663;SDS011;1848;51.042;7.066;2022-08-21T14:34:50;5.00;;;3.20;;
3663;SDS011;1848;51.042;7.066;2022-08-21T14:37:19;4.03;;;3.13;;
3663;SDS011;1848;51.042;7.066;2022-08-21T14:39:46;3.80;;;2.80;;
3663;SDS011;1848;51.042;7.066;2022-08-21T14:42:12;3.40;;;3.00;;
3663;SDS011;1848;51.042;7.066;2022-08-21T14:44:39;3.67;;;2.80;;
3663;SDS011;1848;51.042;7.066;2022-08-21T14:47:05;5.97;;;3.27;;
3663;SDS011;1848;51.042;7.066;2022-08-21T14:49:31;4.80;;;3.30;;
3663;SDS011;1848;51.042;7.066;2022-08-21T14:51:58;4.77;;;3.00;;
3663;SDS011;1848;51.042;7.066;2022-08-21T14:54:25;5.87;;;3.27;;
3663;SDS011;1848;51.042;7.066;2022-08-21T14:56:57;6.97;;;3.33;;
3663;SDS011;1848;51.042;7.066;2022-08-21T14:59:26;5.17;;;3.03;;
3663;SDS011;1848;51.042;7.066;2022-08-21T15:01:53;5.20;;;2.80;;
3663;SDS011;1848;51.042;7.066;2022-08-21T15:04:19;4.47;;;2.67;;
3663;SDS011;1848;51.042;7.066;2022-08-21T15:06:46;4.60;;;3.10;;
3663;SDS011;1848;51.042;7.066;2022-08-21T15:09:12;6.40;;;2.80;;
3663;SDS011;1848;51.042;7.066;2022-08-21T15:11:39;4.33;;;2.80;;
3663;SDS011;1848;51.042;7.066;2022-08-21T15:14:08;4.40;;;2.70;;
3663;SDS011;1848;51.042;7.066;2022-08-21T15:16:45;2.73;;;2.40;;
3663;SDS011;1848;51.042;7.066;2022-08-21T15:19:12;4.83;;;2.97;;
3663;SDS011;1848;51.042;7.066;2022-08-21T15:21:38;5.40;;;2.80;;
3663;SDS011;1848;51.042;7.066;2022-08-21T15:24:05;4.40;;;2.60;;
3663;SDS011;1848;51.042;7.066;2022-08-21T15:26:31;3.50;;;2.33;;
3663;SDS011;1848;51.042;7.066;2022-08-21T15:28:58;4.17;;;2.60;;
3663;SDS011;1848;51.042;7.066;2022-08-21T15:31:25;3.53;;;2.87;;
3663;SDS011;1848;51.042;7.066;2022-08-21T15:33:52;3.67;;;2.60;;
3663;SDS011;1848;51.042;7.066;2022-08-21T15:36:19;6.00;;;2.97;;
3663;SDS011;1848;51.042;7.066;2022-08-21T15:38:46;3.20;;;2.43;;
3663;SDS011;1848;51.042;7.066;2022-08-21T15:41:12;4.70;;;2.90;;
3663;SDS011;1848;51.042;7.066;2022-08-21T15:43:42;7.13;;;3.00;;
3663;SDS011;1848;51.042;7.066;2022-08-21T15:46:12;5.17;;;2.90;;
3663;SDS011;1848;51.042;7.066;2022-08-21T15:48:40;5.37;;;2.67;;
3663;SDS011;1848;51.042;7.066;2022-08-21T15:51:06;3.93;;;2.77;;
3663;SDS011;1848;51.042;7.066;2022-08-21T15:53:33;3.90;;;2.50;;
3663;SDS011;1848;51.042;7.066;2022-08-21T15:56:05;3.87;;;2.80;;
3663;SDS011;1848;51.042;7.066;2022-08-21T15:58:46;3.30;;;2.20;;
3663;SDS011;1848;51.042;7.066;2022-08-21T16:01:12;4.07;;;2.67;;
3663;SDS011;1848;51.042;7.066;2022-08-21T16:03:39;4.53;;;2.90;;
3663;SDS011;1848;51.042;7.066;2022-08-21T16:06:06;4.33;;;2.67;;
3663;SDS011;1848;51.042;7.066;2022-08-21T16:08:32;6.07;;;2.63;;
3663;SDS011;1848;51.042;7.066;2022-08-21T16:10:59;9.60;;;2.70;;
3663;SDS011;1848;51.042;7.066;2022-08-21T16:13:27;5.07;;;3.20;;
3663;SDS011;1848;51.042;7.066;2022-08-21T16:15:58;3.23;;;2.80;;
3663;SDS011;1848;51.042;7.066;2022-08-21T16:18:25;6.00;;;2.90;;
3663;SDS011;1848;51.042;7.066;2022-08-21T16:20:52;2.60;;;2.40;;
3663;SDS011;1848;51.042;7.066;2022-08-21T16:23:18;3.00;;;2.70;;
3663;SDS011;1848;51.042;7.066;2022-08-21T16:25:45;10.00;;;3.23;;